Time;durP1;ratioP1;P1;durP2;ratioP2;P2;SDS_P1;SDS_P2;PMS_P1;PMS_P2;Temp;Humidity;BMP_temperature;BMP_pressure;BME280_temperature;BME280_humidity;BME280_pressure;Samples;Min_cycle;Max_cycle;Signal;HPM_P1;HPM_P2
2022/12/08 00:02:12;;;;;;;7.28;5.90;;;19.40;60.30;;;;;;5055188;28;20488;-66
2022/12/08 00:09:20;;;;;;;7.72;6.07;;;19.40;60.30;;;;;;5044751;28;20017;-65
2022/12/08 00:10:08;;;;;;;6.07;5.43;;;19.40;60.30;;;;;;5050798;28;20037;-65
2022/12/08 00:12:34;;;;;;;6.90;5.90;;;19.40;60.30;;;;;;5045847;28;20027;-67
2022/12/08 00:14:59;;;;;;;6.57;5.30;;;19.40;60.30;;;;;;5041951;28;20020;-66
2022/12/08 00:17:25;;;;;;;6.47;5.82;;;19.40;60.30;;;;;;5053124;28;20036;-65
2022/12/08 00:19:51;;;;;;;6.43;5.82;;;19.40;60.30;;;;;;5044004;28;20495;-65
2022/12/08 00:22:16;;;;;;;6.10;5.30;;;19.30;60.20;;;;;;5055656;28;20037;-65
2022/12/08 00:24:46;;;;;;;6.55;5.55;;;19.30;60.30;;;;;;5050355;28;20060;-65
2022/12/08 00:27:14;;;;;;;6.45;5.80;;;19.40;60.30;;;;;;5048133;28;20028;-65
2022/12/08 00:29:42;;;;;;;6.55;5.80;;;19.30;60.20;;;;;;5048824;28;20029;-65
2022/12/08 00:32:08;;;;;;;5.85;5.20;;;19.30;60.30;;;;;;5045844;28;20519;-65
2022/12/08 00:34:33;;;;;;;6.13;5.50;;;19.30;60.20;;;;;;5043324;28;20100;-65
2022/12/08 00:36:59;;;;;;;6.07;5.25;;;19.30;60.20;;;;;;5054460;28;20079;-65
2022/12/08 00:39:25;;;;;;;6.25;5.55;;;19.30;60.20;;;;;;5052679;28;20025;-66
2022/12/08 00:44:35;;;;;;;5.72;5.13;;;19.30;60.20;;;;;;5051992;28;20132;-65
2022/12/08 00:47:00;;;;;;;5.85;5.22;;;19.30;60.20;;;;;;5048700;28;20111;-65
2022/12/08 00:49:26;;;;;;;6.07;5.13;;;19.30;60.20;;;;;;5048127;28;20473;-65
2022/12/08 00:51:52;;;;;;;6.00;5.40;;;19.20;60.80;;;;;;5046590;28;20017;-66
2022/12/08 00:54:18;;;;;;;5.85;5.15;;;19.30;60.20;;;;;;5056869;28;20024;-66
2022/12/08 00:56:43;;;;;;;6.95;5.20;;;19.30;60.20;;;;;;5035660;28;20387;-65
2022/12/08 00:59:12;;;;;;;5.78;4.97;;;19.30;60.20;;;;;;5045892;28;20032;-65
2022/12/08 01:01:38;;;;;;;5.80;5.18;;;19.30;60.20;;;;;;5047264;28;20072;-64
2022/12/08 01:04:05;;;;;;;5.50;4.90;;;19.30;60.20;;;;;;5055847;28;20543;-66
2022/12/08 01:06:31;;;;;;;6.38;5.15;;;19.20;60.20;;;;;;5049983;28;20133;-64
2022/12/08 01:08:57;;;;;;;5.65;5.05;;;19.20;60.20;;;;;;5046170;28;20471;-65
2022/12/08 01:11:22;;;;;;;5.45;4.72;;;19.20;60.20;;;;;;5059576;28;20065;-65
2022/12/08 01:13:48;;;;;;;5.93;4.97;;;19.20;60.20;;;;;;5058426;28;20020;-65
2022/12/08 01:16:40;;;;;;;5.32;4.47;;;19.20;60.20;;;;;;5046632;28;20037;-64
2022/12/08 01:19:06;;;;;;;5.68;4.97;;;19.20;60.10;;;;;;5044637;28;20071;-65
2022/12/08 01:21:31;;;;;;;5.43;4.63;;;19.20;60.10;;;;;;5048735;28;20504;-65
2022/12/08 01:23:59;;;;;;;5.55;4.82;;;19.20;60.10;;;;;;5045003;28;20026;-66
2022/12/08 01:26:24;;;;;;;5.35;4.85;;;19.20;60.10;;;;;;5059335;28;20032;-65
2022/12/08 01:28:50;;;;;;;5.30;4.63;;;19.20;60.10;;;;;;5051313;28;20477;-65
2022/12/08 01:31:18;;;;;;;6.80;4.40;;;19.20;60.10;;;;;;5043553;28;20060;-66
2022/12/08 01:33:44;;;;;;;5.85;5.10;;;19.20;60.10;;;;;;5053335;28;20108;-67
2022/12/08 01:36:25;;;;;;;5.43;4.80;;;19.20;60.10;;;;;;5042285;28;20116;-65
2022/12/08 01:38:51;;;;;;;5.40;4.75;;;19.20;60.10;;;;;;5058470;28;20028;-65
2022/12/08 01:41:20;;;;;;;5.03;4.53;;;19.20;60.10;;;;;;5055480;28;20081;-64
2022/12/08 01:44:00;;;;;;;5.43;4.55;;;19.20;60.00;;;;;;5055380;28;20448;-66
2022/12/08 01:46:28;;;;;;;5.18;4.68;;;19.20;60.00;;;;;;5046137;28;20065;-64
2022/12/08 01:49:07;;;;;;;5.05;4.50;;;19.10;60.00;;;;;;5045944;28;20431;-64
2022/12/08 01:51:40;;;;;;;5.07;4.57;;;19.10;60.00;;;;;;5050636;28;20277;-65
2022/12/08 01:54:06;;;;;;;4.68;4.13;;;19.10;60.00;;;;;;5057707;28;20037;-64
2022/12/08 01:56:58;;;;;;;5.20;4.60;;;19.20;60.00;;;;;;5060298;28;20400;-64
2022/12/08 01:59:25;;;;;;;4.68;3.95;;;19.10;60.00;;;;;;5050042;28;20028;-65
2022/12/08 02:01:51;;;;;;;5.47;4.68;;;19.10;60.00;;;;;;5043641;28;20388;-66
2022/12/08 02:04:16;;;;;;;4.90;4.35;;;19.10;60.00;;;;;;5038527;28;20102;-66
2022/12/08 02:06:43;;;;;;;5.00;4.43;;;19.10;60.00;;;;;;5050860;28;20034;-67
2022/12/08 02:09:09;;;;;;;5.05;4.50;;;19.10;60.00;;;;;;5045428;28;20029;-66
2022/12/08 02:11:35;;;;;;;4.80;4.20;;;19.10;60.00;;;;;;5058347;28;20031;-67
2022/12/08 02:14:05;;;;;;;4.40;3.90;;;19.10;60.00;;;;;;5053609;28;20472;-66
2022/12/08 02:16:55;;;;;;;4.95;4.07;;;19.10;60.00;;;;;;5032377;28;20029;-65
2022/12/08 02:19:41;;;;;;;4.65;4.15;;;19.10;60.00;;;;;;5027455;28;20032;-66
2022/12/08 02:22:23;;;;;;;5.13;4.20;;;19.10;60.00;;;;;;5051385;28;20170;-64
2022/12/08 02:25:02;;;;;;;5.15;4.65;;;19.10;59.90;;;;;;5057532;28;20032;-65
2022/12/08 02:27:55;;;;;;;5.03;4.45;;;19.10;59.90;;;;;;5053834;28;20024;-66
2022/12/08 02:30:41;;;;;;;5.00;4.40;;;19.00;59.90;;;;;;5055504;28;20021;-64
2022/12/08 02:33:25;;;;;;;4.50;3.72;;;19.10;60.00;;;;;;5049378;28;20075;-66
2022/12/08 02:36:03;;;;;;;5.28;4.30;;;19.00;59.90;;;;;;5049554;28;20075;-66
2022/12/08 02:38:50;;;;;;;5.65;4.15;;;19.00;59.90;;;;;;5057474;28;20060;-65
2022/12/08 02:41:37;;;;;;;4.50;3.90;;;19.00;59.90;;;;;;5053255;28;20025;-65
2022/12/08 02:44:31;;;;;;;4.53;3.83;;;19.00;59.90;;;;;;5063237;28;20029;-65
2022/12/08 02:47:11;;;;;;;4.50;4.00;;;19.10;59.90;;;;;;5053074;28;20443;-66
2022/12/08 02:49:37;;;;;;;4.65;4.05;;;19.00;59.90;;;;;;5048047;28;20018;-66
2022/12/08 02:52:13;;;;;;;4.70;4.10;;;19.00;59.80;;;;;;5038722;28;20429;-65
2022/12/08 02:54:42;;;;;;;4.65;3.85;;;19.00;59.90;;;;;;5051613;28;20453;-67
2022/12/08 02:57:44;;;;;;;4.70;4.20;;;19.00;59.80;;;;;;5057914;28;20040;-66
2022/12/08 03:00:16;;;;;;;4.80;3.95;;;19.00;59.90;;;;;;5050652;28;20503;-65
2022/12/08 03:03:13;;;;;;;5.47;4.18;;;19.00;59.90;;;;;;5048802;28;20083;-67
2022/12/08 03:05:55;;;;;;;4.00;3.50;;;19.00;59.90;;;;;;5032931;28;20427;-66
2022/12/08 03:08:41;;;;;;;3.83;3.42;;;19.00;59.90;;;;;;5044586;28;20477;-65
2022/12/08 03:11:31;;;;;;;4.30;3.50;;;19.00;59.80;;;;;;5052721;28;20040;-66
2022/12/08 03:14:00;;;;;;;4.30;3.53;;;19.00;59.90;;;;;;5053028;28;20070;-67
2022/12/08 03:16:28;;;;;;;4.27;3.67;;;18.90;59.80;;;;;;5047317;28;20132;-66
2022/12/08 03:19:18;;;;;;;4.05;3.50;;;18.90;59.80;;;;;;5053375;28;20554;-65
2022/12/08 03:21:52;;;;;;;5.18;4.30;;;18.90;59.80;;;;;;5043954;28;20033;-65
2022/12/08 03:24:21;;;;;;;4.80;4.00;;;18.90;59.80;;;;;;5044913;28;20443;-66
2022/12/08 03:27:03;;;;;;;4.03;3.47;;;18.90;59.80;;;;;;5049724;28;20036;-66
2022/12/08 03:29:29;;;;;;;4.80;3.85;;;18.90;59.80;;;;;;5048780;28;20102;-65
2022/12/08 03:32:00;;;;;;;4.40;3.60;;;18.90;59.80;;;;;;5059215;28;20028;-66
2022/12/08 03:34:28;;;;;;;4.80;3.97;;;18.90;59.80;;;;;;5051351;28;20048;-66
2022/12/08 03:36:54;;;;;;;4.13;3.53;;;18.90;59.80;;;;;;5036837;28;20063;-66
2022/12/08 03:39:20;;;;;;;4.78;4.18;;;18.90;59.90;;;;;;5052332;28;20357;-66
2022/12/08 03:41:46;;;;;;;4.22;3.80;;;18.90;59.90;;;;;;5047319;28;20036;-66
2022/12/08 03:44:11;;;;;;;4.20;3.80;;;18.90;59.90;;;;;;5055986;28;20342;-67
2022/12/08 03:46:37;;;;;;;3.92;3.53;;;18.90;59.90;;;;;;5053957;28;20082;-66
2022/12/08 03:49:03;;;;;;;4.63;3.55;;;18.90;59.90;;;;;;5055897;28;20487;-66
2022/12/08 03:51:29;;;;;;;4.32;3.45;;;18.80;59.80;;;;;;5057589;28;20052;-65
2022/12/08 03:53:54;;;;;;;4.18;3.45;;;18.90;59.90;;;;;;5039198;28;20033;-66
2022/12/08 03:56:29;;;;;;;4.63;4.03;;;18.80;59.90;;;;;;5053299;28;20035;-66
2022/12/08 03:58:58;;;;;;;4.28;3.58;;;18.80;59.90;;;;;;5042778;28;20075;-68
2022/12/08 04:01:24;;;;;;;4.32;3.50;;;18.80;60.40;;;;;;5052004;28;20025;-66
2022/12/08 04:03:50;;;;;;;4.07;3.35;;;18.80;59.90;;;;;;5038908;28;20133;-67
2022/12/08 04:06:17;;;;;;;4.80;3.72;;;18.80;60.50;;;;;;5054992;28;20056;-66
2022/12/08 04:08:43;;;;;;;4.38;3.55;;;18.80;59.90;;;;;;5052812;28;20484;-66
2022/12/08 04:11:09;;;;;;;3.90;3.38;;;18.80;60.50;;;;;;5050662;28;20032;-66
2022/12/08 04:13:36;;;;;;;5.00;3.85;;;18.80;59.90;;;;;;5047488;28;20060;-65
2022/12/08 04:16:02;;;;;;;4.07;3.35;;;18.80;60.00;;;;;;5041050;28;20028;-66
2022/12/08 04:18:28;;;;;;;4.30;3.60;;;18.80;60.00;;;;;;5039469;28;20361;-67
2022/12/08 04:20:54;;;;;;;4.60;3.25;;;18.80;60.00;;;;;;5052814;28;20040;-67
2022/12/08 04:23:20;;;;;;;4.07;3.25;;;18.80;60.00;;;;;;5051782;28;20037;-66
2022/12/08 04:25:45;;;;;;;4.55;3.38;;;18.80;60.00;;;;;;5058014;28;20476;-65
2022/12/08 04:28:12;;;;;;;3.92;3.38;;;18.80;60.00;;;;;;5060373;28;20050;-66
2022/12/08 04:30:38;;;;;;;4.15;3.30;;;18.80;60.00;;;;;;5049549;28;20040;-66
2022/12/08 04:33:04;;;;;;;3.75;3.10;;;18.70;59.90;;;;;;5051887;28;20107;-65
2022/12/08 04:35:30;;;;;;;3.70;2.97;;;18.80;60.00;;;;;;5045087;28;20037;-66
2022/12/08 04:37:56;;;;;;;3.20;2.60;;;18.80;59.80;;;;;;5053140;28;20034;-65
2022/12/08 04:40:22;;;;;;;3.45;2.78;;;18.80;59.70;;;;;;5057713;28;20056;-66
2022/12/08 04:42:47;;;;;;;3.28;2.60;;;18.80;59.60;;;;;;5048222;28;20092;-65
2022/12/08 04:45:13;;;;;;;3.15;2.63;;;18.80;59.60;;;;;;5054687;28;20028;-65
2022/12/08 04:47:39;;;;;;;3.10;2.50;;;18.80;59.70;;;;;;5054905;28;20108;-66
2022/12/08 04:50:06;;;;;;;3.42;2.65;;;18.80;59.80;;;;;;5045886;28;20112;-66
2022/12/08 04:52:31;;;;;;;3.45;2.90;;;18.80;59.80;;;;;;5045991;28;20027;-65
2022/12/08 04:54:57;;;;;;;3.45;2.75;;;18.80;59.80;;;;;;5051726;28;20033;-65
2022/12/08 04:57:23;;;;;;;3.65;2.83;;;18.80;59.90;;;;;;5058910;28;20431;-65
2022/12/08 04:59:48;;;;;;;4.20;3.08;;;18.80;59.90;;;;;;5055867;28;20056;-65
2022/12/08 05:02:14;;;;;;;3.60;2.90;;;18.80;59.90;;;;;;5057968;28;20028;-66
2022/12/08 05:04:40;;;;;;;3.63;2.85;;;18.80;60.00;;;;;;5057998;28;20096;-64
2022/12/08 05:07:05;;;;;;;3.60;2.80;;;18.80;60.50;;;;;;5049680;28;20481;-65
2022/12/08 05:09:31;;;;;;;3.35;2.75;;;18.80;60.00;;;;;;5045885;28;20052;-64
2022/12/08 05:11:56;;;;;;;3.40;2.60;;;18.80;60.60;;;;;;5045359;28;20029;-64
2022/12/08 05:14:22;;;;;;;3.97;2.90;;;18.80;60.10;;;;;;5049092;28;20330;-66
2022/12/08 05:16:48;;;;;;;3.72;2.97;;;18.80;60.00;;;;;;5050366;28;20040;-66
2022/12/08 05:19:14;;;;;;;3.92;2.90;;;18.80;60.10;;;;;;5058665;28;20032;-66
2022/12/08 05:21:40;;;;;;;3.33;2.58;;;18.80;60.60;;;;;;5054815;28;20047;-66
2022/12/08 05:24:06;;;;;;;3.53;2.70;;;18.80;60.00;;;;;;5053101;28;20030;-66
2022/12/08 05:26:32;;;;;;;3.83;2.92;;;18.80;60.10;;;;;;5053525;28;20388;-64
2022/12/08 05:28:58;;;;;;;3.60;2.60;;;18.80;60.00;;;;;;5053617;28;20033;-65
2022/12/08 05:31:24;;;;;;;4.10;2.83;;;18.80;60.00;;;;;;5035329;28;20456;-64
2022/12/08 05:33:52;;;;;;;3.75;2.83;;;18.80;60.00;;;;;;5050048;28;20381;-66
2022/12/08 05:36:19;;;;;;;4.53;2.90;;;18.80;60.00;;;;;;5053298;28;20037;-66
2022/12/08 05:38:45;;;;;;;3.28;2.47;;;18.80;60.10;;;;;;5036485;28;20033;-65
2022/12/08 05:41:17;;;;;;;3.80;2.70;;;18.80;60.00;;;;;;5054384;28;20044;-65
2022/12/08 05:43:43;;;;;;;3.53;2.78;;;18.80;60.00;;;;;;5038929;28;20499;-65
2022/12/08 05:46:10;;;;;;;3.22;2.60;;;18.70;60.00;;;;;;5037641;28;20064;-64
2022/12/08 05:48:36;;;;;;;2.95;2.30;;;18.80;60.10;;;;;;5047157;28;20053;-65
2022/12/08 05:51:03;;;;;;;3.55;2.58;;;18.80;60.10;;;;;;5045436;28;20037;-64
2022/12/08 05:53:28;;;;;;;3.03;2.35;;;18.80;60.10;;;;;;5046521;28;20523;-64
2022/12/08 05:55:54;;;;;;;3.42;2.30;;;18.80;60.10;;;;;;5048763;28;20020;-65
2022/12/08 05:58:21;;;;;;;3.42;2.72;;;18.80;60.10;;;;;;5046505;28;20076;-64
2022/12/08 06:00:48;;;;;;;3.10;2.35;;;18.80;60.10;;;;;;5042987;28;20025;-64
2022/12/08 06:03:15;;;;;;;5.03;2.72;;;18.80;60.10;;;;;;5031340;28;20036;-64
2022/12/08 06:05:42;;;;;;;3.25;2.47;;;18.80;60.10;;;;;;5051309;28;20029;-64
2022/12/08 06:08:08;;;;;;;3.00;2.30;;;18.80;60.10;;;;;;5044755;28;20473;-64
2022/12/08 06:10:34;;;;;;;2.78;2.20;;;18.80;60.10;;;;;;5045758;28;20040;-65
2022/12/08 06:12:59;;;;;;;3.20;2.60;;;18.80;60.10;;;;;;5053217;28;20020;-65
2022/12/08 06:15:25;;;;;;;3.63;2.42;;;18.80;60.10;;;;;;5054060;28;20051;-65
2022/12/08 06:17:51;;;;;;;3.20;2.50;;;18.80;60.10;;;;;;5052699;28;20199;-63
2022/12/08 06:20:17;;;;;;;3.80;2.55;;;18.80;60.10;;;;;;5052829;28;20495;-63
2022/12/08 06:22:42;;;;;;;4.07;2.15;;;18.70;60.00;;;;;;5040751;28;20432;-64
2022/12/08 06:25:08;;;;;;;4.13;2.53;;;18.80;60.10;;;;;;5057958;28;20037;-64
2022/12/08 06:27:34;;;;;;;5.38;2.53;;;18.80;60.10;;;;;;5055167;28;20063;-64
2022/12/08 06:30:00;;;;;;;5.72;2.63;;;18.80;60.10;;;;;;5051144;28;20057;-65
2022/12/08 06:32:25;;;;;;;3.75;2.47;;;18.80;60.00;;;;;;5050127;28;20445;-64
2022/12/08 06:34:51;;;;;;;4.93;2.58;;;18.80;60.00;;;;;;5043415;28;20059;-63
2022/12/08 06:37:18;;;;;;;5.03;2.50;;;18.80;60.00;;;;;;5047637;28;20032;-64
2022/12/08 06:39:44;;;;;;;3.88;2.67;;;18.80;60.00;;;;;;5056117;28;20029;-64
2022/12/08 06:44:54;;;;;;;4.57;3.03;;;18.80;59.70;;;;;;5051418;28;20129;-64
2022/12/08 06:47:22;;;;;;;4.32;2.97;;;18.80;59.40;;;;;;5048201;28;20107;-64
2022/12/08 06:49:48;;;;;;;5.40;3.00;;;18.80;59.10;;;;;;5043055;28;20049;-65
2022/12/08 06:52:14;;;;;;;4.22;2.90;;;18.80;59.00;;;;;;5049500;28;20071;-65
2022/12/08 06:54:39;;;;;;;4.70;3.28;;;18.80;59.20;;;;;;5060707;28;20024;-65
2022/12/08 06:57:05;;;;;;;4.25;3.15;;;18.80;59.30;;;;;;5063363;28;20024;-65
2022/12/08 06:59:31;;;;;;;4.90;3.20;;;18.80;59.30;;;;;;5063634;28;20098;-65
2022/12/08 07:01:57;;;;;;;5.45;3.97;;;18.80;59.30;;;;;;5061799;28;20125;-64
2022/12/08 07:04:22;;;;;;;4.63;3.00;;;18.80;59.30;;;;;;5050422;28;20552;-65
2022/12/08 07:06:48;;;;;;;4.55;3.10;;;18.80;59.40;;;;;;5051629;28;20108;-64
2022/12/08 07:09:14;;;;;;;5.00;3.30;;;18.80;59.30;;;;;;5048002;28;20469;-65
2022/12/08 07:11:39;;;;;;;6.00;3.05;;;18.80;59.30;;;;;;5050595;28;20040;-64
2022/12/08 07:14:05;;;;;;;4.63;3.00;;;18.80;59.30;;;;;;5054034;28;20028;-64
2022/12/08 07:16:31;;;;;;;4.18;3.00;;;18.80;59.30;;;;;;5053837;28;20037;-65
2022/12/08 07:18:58;;;;;;;4.60;3.00;;;18.80;59.30;;;;;;5051169;28;20037;-65
2022/12/08 07:21:23;;;;;;;4.78;2.90;;;18.80;59.30;;;;;;5046646;28;20036;-63
2022/12/08 07:23:49;;;;;;;4.35;3.00;;;18.80;59.30;;;;;;5046446;28;20036;-64
2022/12/08 07:26:15;;;;;;;4.50;2.83;;;18.80;59.30;;;;;;5043484;28;20025;-64
2022/12/08 07:28:41;;;;;;;4.80;3.00;;;18.80;59.30;;;;;;5053755;28;20021;-64
2022/12/08 07:31:16;;;;;;;5.15;3.33;;;18.80;59.30;;;;;;5057029;28;20534;-64
2022/12/08 07:33:42;;;;;;;5.68;3.10;;;18.80;59.30;;;;;;5052959;28;20105;-65
2022/12/08 07:36:08;;;;;;;5.07;2.80;;;18.80;59.30;;;;;;5051045;28;20455;-64
2022/12/08 07:38:34;;;;;;;5.57;3.08;;;18.80;59.30;;;;;;5057984;28;20025;-64
2022/12/08 07:41:00;;;;;;;4.43;2.85;;;18.80;59.80;;;;;;5057582;28;20052;-64
2022/12/08 07:43:26;;;;;;;4.50;2.88;;;18.80;59.30;;;;;;5061293;28;20458;-64
2022/12/08 07:45:51;;;;;;;4.85;3.03;;;18.80;59.30;;;;;;5052071;28;20035;-64
2022/12/08 07:48:17;;;;;;;3.88;2.80;;;18.80;59.30;;;;;;5053350;28;20036;-64
2022/12/08 07:50:44;;;;;;;4.35;2.85;;;18.80;59.30;;;;;;5063900;28;20565;-64
2022/12/08 07:53:09;;;;;;;4.28;2.80;;;18.80;59.40;;;;;;5054210;28;20489;-64
2022/12/08 07:55:40;;;;;;;4.65;3.00;;;18.80;59.30;;;;;;5048629;28;20049;-64
2022/12/08 07:58:06;;;;;;;4.15;2.75;;;18.80;59.40;;;;;;5050635;28;20486;-65
2022/12/08 08:00:31;;;;;;;4.35;2.63;;;18.80;59.50;;;;;;5049408;28;20037;-64
2022/12/08 08:02:57;;;;;;;4.47;2.90;;;18.80;59.60;;;;;;5039177;28;20021;-64
2022/12/08 08:05:23;;;;;;;4.95;2.60;;;18.90;59.60;;;;;;5051567;28;20029;-64
2022/12/08 08:07:48;;;;;;;3.90;2.75;;;18.90;59.60;;;;;;5047032;28;20033;-65
2022/12/08 08:10:14;;;;;;;3.38;2.40;;;18.90;59.60;;;;;;5049389;28;20028;-64
2022/12/08 08:12:40;;;;;;;3.05;2.35;;;19.00;59.70;;;;;;5049871;28;20104;-65
2022/12/08 08:15:07;;;;;;;3.40;2.38;;;19.10;59.70;;;;;;5054760;28;20158;-64
2022/12/08 08:17:35;;;;;;;4.05;2.40;;;19.00;59.60;;;;;;5046748;28;20484;-64
2022/12/08 08:20:00;;;;;;;3.47;2.30;;;19.10;59.60;;;;;;5047944;28;20028;-65
2022/12/08 08:22:26;;;;;;;3.25;2.20;;;19.10;59.60;;;;;;5046141;28;20028;-64
2022/12/08 08:24:53;;;;;;;3.70;2.63;;;19.10;59.60;;;;;;5043247;28;20016;-65
2022/12/08 08:27:19;;;;;;;3.35;2.53;;;19.00;59.50;;;;;;5055520;28;20028;-63
2022/12/08 08:29:44;;;;;;;3.20;2.35;;;19.10;59.60;;;;;;5055664;28;20036;-63
2022/12/08 08:32:10;;;;;;;3.92;2.75;;;19.00;59.50;;;;;;5037723;28;20423;-65
2022/12/08 08:34:36;;;;;;;3.70;2.38;;;19.00;59.60;;;;;;5044149;28;20028;-64
2022/12/08 08:37:02;;;;;;;3.90;2.83;;;19.00;59.60;;;;;;5037402;28;20698;-65
2022/12/08 08:39:29;;;;;;;3.70;2.33;;;19.00;59.60;;;;;;5049912;28;20384;-64
2022/12/08 08:41:54;;;;;;;3.60;2.30;;;19.10;59.70;;;;;;5048886;28;20036;-66
2022/12/08 08:44:20;;;;;;;4.18;2.58;;;19.00;59.60;;;;;;5052830;28;20025;-64
2022/12/08 08:46:46;;;;;;;3.95;2.40;;;19.00;59.60;;;;;;5052755;28;20040;-65
2022/12/08 08:49:11;;;;;;;3.90;2.75;;;19.00;59.60;;;;;;5054309;28;20310;-64
2022/12/08 08:51:37;;;;;;;3.53;2.50;;;19.00;59.60;;;;;;5050631;28;20104;-63
2022/12/08 08:54:03;;;;;;;3.72;2.33;;;19.00;59.60;;;;;;5050034;28;20021;-66
2022/12/08 08:56:29;;;;;;;4.13;2.75;;;19.00;59.60;;;;;;5048930;28;20029;-64
2022/12/08 08:58:55;;;;;;;3.10;2.30;;;19.10;59.70;;;;;;5051094;28;20025;-63
2022/12/08 09:01:24;;;;;;;3.80;2.30;;;19.10;59.60;;;;;;5045724;28;20025;-64
2022/12/08 09:03:50;;;;;;;3.20;2.38;;;19.00;59.60;;;;;;5041831;28;20503;-64
2022/12/08 09:06:16;;;;;;;3.42;2.70;;;19.00;59.60;;;;;;5049179;28;20034;-65
2022/12/08 09:08:42;;;;;;;4.20;2.63;;;19.00;59.60;;;;;;5045672;28;20388;-65
2022/12/08 09:11:08;;;;;;;3.95;2.72;;;19.00;59.60;;;;;;5047489;28;20455;-65
2022/12/08 09:13:34;;;;;;;3.25;2.25;;;19.00;59.60;;;;;;5045731;28;20384;-64
2022/12/08 09:16:01;;;;;;;3.38;2.38;;;19.00;59.60;;;;;;5047231;28;20033;-65
2022/12/08 09:18:28;;;;;;;3.92;2.40;;;19.10;59.60;;;;;;5042577;28;20041;-64
2022/12/08 09:20:54;;;;;;;4.15;2.65;;;19.00;59.60;;;;;;5037781;28;20034;-64
2022/12/08 09:23:19;;;;;;;3.50;2.30;;;19.00;59.60;;;;;;5052322;28;20548;-64
2022/12/08 09:25:45;;;;;;;3.17;2.38;;;19.00;59.60;;;;;;5039605;28;20037;-64
2022/12/08 09:28:11;;;;;;;3.15;2.42;;;19.00;59.60;;;;;;5039761;28;20026;-64
2022/12/08 09:30:38;;;;;;;3.40;2.33;;;19.00;59.60;;;;;;5042147;28;20029;-65
2022/12/08 09:33:03;;;;;;;3.67;2.38;;;19.00;59.60;;;;;;5051762;28;20025;-65
2022/12/08 09:35:29;;;;;;;3.40;2.20;;;19.00;59.60;;;;;;5047565;28;20393;-65
2022/12/08 09:37:55;;;;;;;3.72;2.17;;;19.00;59.60;;;;;;5045548;28;20060;-65
2022/12/08 09:40:22;;;;;;;3.55;2.30;;;19.00;59.60;;;;;;5048227;28;20437;-64
2022/12/08 09:43:01;;;;;;;3.42;2.38;;;19.00;59.60;;;;;;5035656;28;20581;-65
2022/12/08 09:45:32;;;;;;;3.92;2.22;;;18.90;59.50;;;;;;5049983;28;20480;-64
2022/12/08 09:48:05;;;;;;;3.03;2.03;;;19.00;59.60;;;;;;5050773;28;20043;-64
2022/12/08 09:50:39;;;;;;;3.88;2.28;;;19.00;59.60;;;;;;5052982;28;20445;-66
2022/12/08 09:53:13;;;;;;;3.45;2.35;;;19.00;59.60;;;;;;5058811;28;20431;-64
2022/12/08 09:55:48;;;;;;;3.30;2.30;;;19.00;59.60;;;;;;5041975;28;20305;-65
2022/12/08 09:58:20;;;;;;;3.50;2.30;;;19.00;59.60;;;;;;5049338;28;20029;-65
2022/12/08 10:00:46;;;;;;;3.40;2.20;;;19.00;59.60;;;;;;5046095;28;20051;-65
2022/12/08 10:03:12;;;;;;;3.00;2.10;;;18.90;59.50;;;;;;5044831;28;20385;-65
2022/12/08 10:05:51;;;;;;;3.25;2.28;;;19.00;59.60;;;;;;5054073;28;20913;-64
2022/12/08 10:08:24;;;;;;;3.75;2.40;;;19.00;59.60;;;;;;5055612;28;20023;-64
2022/12/08 10:10:57;;;;;;;3.35;2.30;;;18.90;59.60;;;;;;5055289;28;20048;-64
2022/12/08 10:13:55;;;;;;;3.40;2.20;;;18.90;59.50;;;;;;5055314;28;20095;-64
2022/12/08 10:16:35;;;;;;;3.03;2.28;;;18.90;59.60;;;;;;5045576;28;20020;-64
2022/12/08 10:19:10;;;;;;;3.17;2.22;;;18.90;59.50;;;;;;5050404;28;20502;-64
2022/12/08 10:21:36;;;;;;;3.50;2.25;;;18.90;59.60;;;;;;5052330;28;20033;-64
2022/12/08 10:24:09;;;;;;;2.90;2.20;;;18.90;59.50;;;;;;5054381;28;20040;-65
2022/12/08 10:26:35;;;;;;;3.25;2.10;;;18.90;59.50;;;;;;5056439;28;20179;-64
2022/12/08 10:29:01;;;;;;;3.78;2.30;;;18.90;59.60;;;;;;5046745;28;20116;-65
2022/12/08 10:31:30;;;;;;;3.10;2.10;;;18.90;59.50;;;;;;5046673;28;20033;-65
2022/12/08 10:34:22;;;;;;;3.95;2.08;;;18.90;59.60;;;;;;5054610;28;20111;-65
2022/12/08 10:36:50;;;;;;;3.17;2.25;;;18.90;59.50;;;;;;5046283;28;20025;-66
2022/12/08 10:39:42;;;;;;;3.03;2.20;;;18.90;59.60;;;;;;5060183;28;20499;-65
2022/12/08 10:42:14;;;;;;;3.03;2.10;;;18.90;59.50;;;;;;5057898;28;20037;-65
2022/12/08 10:45:09;;;;;;;4.15;2.30;;;18.90;59.60;;;;;;5052722;28;20033;-65
2022/12/08 10:47:40;;;;;;;3.17;2.30;;;18.90;59.60;;;;;;5053552;28;20265;-64
2022/12/08 10:50:15;;;;;;;3.20;2.30;;;18.90;59.60;;;;;;5051756;28;20107;-65
2022/12/08 10:52:41;;;;;;;3.25;2.20;;;18.90;59.60;;;;;;5048311;28;20029;-65
2022/12/08 10:55:18;;;;;;;3.40;2.40;;;18.90;59.60;;;;;;5043065;28;20020;-65
2022/12/08 10:57:44;;;;;;;2.85;2.05;;;18.90;59.60;;;;;;5058813;28;20091;-65
2022/12/08 11:00:19;;;;;;;3.22;2.30;;;18.90;59.60;;;;;;5064044;28;20041;-65
2022/12/08 11:02:54;;;;;;;3.70;2.50;;;18.90;59.60;;;;;;5039946;28;20432;-66
2022/12/08 11:05:22;;;;;;;3.28;2.20;;;18.90;59.60;;;;;;5055919;28;20099;-65
2022/12/08 11:07:52;;;;;;;2.95;2.17;;;18.90;59.60;;;;;;5062121;28;20037;-66
2022/12/08 11:10:20;;;;;;;3.83;2.55;;;18.90;59.60;;;;;;5055029;28;20538;-66
2022/12/08 11:12:49;;;;;;;3.08;2.25;;;18.90;59.60;;;;;;5052189;28;20214;-65
2022/12/08 11:15:16;;;;;;;2.88;2.05;;;18.80;59.50;;;;;;5045651;28;20027;-65
2022/12/08 11:17:44;;;;;;;3.38;2.20;;;18.90;59.60;;;;;;5047295;28;20029;-65
2022/12/08 11:20:10;;;;;;;3.13;2.20;;;18.90;59.60;;;;;;5047131;28;20032;-66
2022/12/08 11:22:35;;;;;;;3.75;2.55;;;18.80;59.50;;;;;;5054215;28;20032;-65
2022/12/08 11:25:10;;;;;;;3.10;2.33;;;18.80;59.50;;;;;;5055412;28;20087;-65
2022/12/08 11:27:42;;;;;;;3.10;2.00;;;18.80;59.50;;;;;;5055524;28;20049;-65
2022/12/08 11:30:15;;;;;;;2.92;1.90;;;18.80;59.50;;;;;;5054857;28;20515;-65
2022/12/08 11:32:43;;;;;;;2.60;1.73;;;18.80;59.50;;;;;;5044921;28;20491;-68
2022/12/08 11:35:19;;;;;;;2.70;2.10;;;18.80;59.60;;;;;;5044115;28;20022;-65
2022/12/08 11:37:45;;;;;;;3.13;2.15;;;18.80;59.50;;;;;;5051769;28;20028;-66
2022/12/08 11:40:27;;;;;;;3.08;2.30;;;18.80;59.50;;;;;;5061064;28;20020;-66
2022/12/08 11:43:06;;;;;;;3.20;2.20;;;18.80;59.50;;;;;;5051996;28;20468;-66
2022/12/08 11:45:34;;;;;;;;;;;18.80;59.60;;;;;;5046033;28;20087;-66
2022/12/08 11:48:28;;;;;;;3.70;2.13;;;18.80;59.50;;;;;;5049341;28;19999;-66
2022/12/08 11:51:10;;;;;;;3.38;2.10;;;18.80;59.50;;;;;;5047448;28;20024;-66
2022/12/08 11:53:59;;;;;;;3.20;2.10;;;18.80;59.50;;;;;;5041428;28;20068;-66
2022/12/08 11:56:32;;;;;;;3.13;2.10;;;18.80;59.60;;;;;;5022658;28;20128;-66
2022/12/08 11:59:21;;;;;;;3.78;2.50;;;18.80;59.60;;;;;;5052941;28;20033;-66
2022/12/08 12:01:47;;;;;;;2.88;2.10;;;18.80;59.60;;;;;;5044191;28;20047;-67
2022/12/08 12:04:15;;;;;;;3.45;2.10;;;18.80;59.60;;;;;;5045789;28;20032;-66
2022/12/08 12:07:00;;;;;;;3.17;2.10;;;18.80;59.60;;;;;;5031872;28;20060;-66
2022/12/08 12:10:13;;;;;;;3.33;2.28;;;18.80;59.60;;;;;;5047219;28;20120;-66
2022/12/08 12:13:09;;;;;;;3.45;2.10;;;18.80;59.60;;;;;;4996048;28;20482;-67
2022/12/08 12:16:11;;;;;;;3.40;2.20;;;18.80;59.60;;;;;;5052687;28;20113;-66
2022/12/08 12:18:45;;;;;;;3.47;2.03;;;18.80;60.20;;;;;;5048855;28;20390;-66
2022/12/08 12:21:37;;;;;;;2.90;2.03;;;18.80;59.90;;;;;;5046575;28;20035;-67
2022/12/08 12:24:06;;;;;;;3.05;2.28;;;18.80;59.70;;;;;;5041723;28;20032;-66
2022/12/08 12:26:36;;;;;;;3.35;2.30;;;18.80;59.70;;;;;;5037559;28;20036;-66
2022/12/08 12:29:09;;;;;;;3.42;2.20;;;18.80;59.60;;;;;;5050710;28;20032;-67
2022/12/08 12:31:42;;;;;;;3.75;2.22;;;18.80;59.60;;;;;;5035908;28;20055;-67
2022/12/08 12:34:16;;;;;;;3.30;2.30;;;18.80;59.50;;;;;;5046671;28;20038;-66
2022/12/08 12:36:49;;;;;;;2.90;2.03;;;18.80;59.50;;;;;;5039228;28;20025;-66
2022/12/08 12:39:19;;;;;;;3.35;2.20;;;18.80;59.50;;;;;;5045171;28;20555;-66
2022/12/08 12:41:47;;;;;;;2.85;1.98;;;18.80;59.50;;;;;;5054388;28;20381;-67
2022/12/08 12:44:13;;;;;;;3.35;2.20;;;18.80;59.50;;;;;;5049542;28;20025;-67
2022/12/08 12:46:52;;;;;;;2.75;1.80;;;18.80;59.50;;;;;;5048359;28;20035;-66
2022/12/08 12:49:39;;;;;;;3.63;2.25;;;18.80;59.50;;;;;;5053458;28;20025;-66
2022/12/08 12:52:22;;;;;;;3.47;2.10;;;18.80;59.40;;;;;;5043738;28;20385;-68
2022/12/08 12:54:48;;;;;;;3.38;2.22;;;18.80;59.50;;;;;;5028424;28;20036;-66
2022/12/08 12:57:22;;;;;;;3.30;2.10;;;18.80;59.40;;;;;;5040704;28;20111;-65
2022/12/08 12:59:53;;;;;;;3.33;2.08;;;18.80;59.40;;;;;;5046384;28;20048;-66
2022/12/08 13:02:31;;;;;;;2.58;2.00;;;18.80;59.40;;;;;;5052424;28;20043;-65
2022/12/08 13:05:08;;;;;;;3.75;2.08;;;18.80;59.40;;;;;;5047411;28;20032;-65
2022/12/08 13:07:54;;;;;;;3.10;2.10;;;18.80;59.40;;;;;;5047307;28;20049;-66
2022/12/08 13:10:47;;;;;;;3.00;2.10;;;18.80;59.40;;;;;;5049804;28;20029;-66
2022/12/08 13:13:15;;;;;;;2.92;2.00;;;18.80;59.40;;;;;;5036851;28;20075;-65